createdAt,value
2022-09-23T00:18:46.657Z,10.88
2022-09-23T00:21:19.577Z,10.43
2022-09-23T00:23:46.773Z,10.52
2022-09-23T00:26:16.341Z,10.98
2022-09-23T00:28:44.021Z,9.60
2022-09-23T00:31:16.832Z,9.93
2022-09-23T00:33:43.626Z,9.27
2022-09-23T00:38:41.654Z,8.98
2022-09-23T00:41:10.542Z,9.20
2022-09-23T00:43:50.289Z,8.38
2022-09-23T00:46:35.748Z,8.63
2022-09-23T00:49:10.796Z,8.20
2022-09-23T00:51:43.754Z,9.02
2022-09-23T00:54:11.631Z,9.45
2022-09-23T00:56:39.864Z,8.40
2022-09-23T00:59:09.835Z,7.75
2022-09-23T01:01:38.789Z,8.95
2022-09-23T01:04:25.455Z,9.15
2022-09-23T01:06:55.001Z,9.18
2022-09-23T01:09:27.195Z,8.98
2022-09-23T01:12:32.805Z,8.77
2022-09-23T01:15:29.837Z,8.90
2022-09-23T01:18:39.445Z,8.05
2022-09-23T01:21:29.222Z,9.40
2022-09-23T01:24:11.034Z,8.75
2022-09-23T01:26:41.046Z,9.32
2022-09-23T01:29:44.496Z,9.45
2022-09-23T01:32:38.966Z,8.32
2022-09-23T01:35:25.266Z,8.63
2022-09-23T01:38:10.435Z,9.45
2022-09-23T01:41:07.968Z,8.23
2022-09-23T01:43:48.487Z,8.50
2022-09-23T01:46:34.066Z,8.10
2022-09-23T01:49:15.655Z,8.38
2022-09-23T01:51:51.978Z,7.45
2022-09-23T01:54:37.930Z,8.73
2022-09-23T01:57:15.645Z,8.40
2022-09-23T01:59:54.142Z,7.72
2022-09-23T02:02:39.279Z,7.45
2022-09-23T02:05:49.716Z,7.03
2022-09-23T02:08:41.487Z,7.43
2022-09-23T02:11:18.595Z,6.38
2022-09-23T02:13:58.292Z,7.22
2022-09-23T02:16:46.200Z,6.95
2022-09-23T02:21:50.212Z,7.30
2022-09-23T02:24:26.207Z,7.25
2022-09-23T02:26:58.918Z,6.78
2022-09-23T02:29:43.217Z,7.00
2022-09-23T02:32:33.241Z,6.38
2022-09-23T02:35:33.793Z,6.38
2022-09-23T02:38:12.319Z,6.63
2022-09-23T02:40:51.011Z,6.47
2022-09-23T02:43:54.317Z,6.60
2022-09-23T02:46:23.229Z,7.25
2022-09-23T02:48:55.528Z,6.35
2022-09-23T02:51:25.364Z,6.50
2022-09-23T02:53:55.896Z,5.95
2022-09-23T02:56:22.375Z,7.55
2022-09-23T02:58:51.863Z,6.32
2022-09-23T03:01:19.013Z,6.32
2022-09-23T03:04:06.856Z,6.78
2022-09-23T03:09:22.441Z,6.30
2022-09-23T03:11:59.295Z,6.10
2022-09-23T03:14:33.294Z,6.38
2022-09-23T03:17:15.998Z,6.57
2022-09-23T03:20:10.037Z,6.00
2022-09-23T03:22:48.621Z,6.32
2022-09-23T03:25:19.707Z,5.90
2022-09-23T03:27:46.126Z,6.07
2022-09-23T03:30:13.778Z,6.82
2022-09-23T03:32:45.520Z,6.07
2022-09-23T03:35:13.368Z,6.07
2022-09-23T03:37:47.133Z,6.15
2022-09-23T03:40:24.010Z,6.20
2022-09-23T03:42:51.442Z,5.80
2022-09-23T03:45:22.006Z,5.60
2022-09-23T03:47:48.457Z,5.55
2022-09-23T03:50:17.293Z,6.13
2022-09-23T03:52:44.373Z,5.10
2022-09-23T03:55:11.507Z,5.40
2022-09-23T03:57:38.368Z,5.22
2022-09-23T04:00:08.109Z,5.38
2022-09-23T04:02:34.700Z,5.22
2022-09-23T04:05:01.271Z,4.85
2022-09-23T04:07:28.177Z,6.28
2022-09-23T04:09:55.080Z,5.53
2022-09-23T04:12:21.591Z,5.25
2022-09-23T04:14:48.309Z,5.25
2022-09-23T04:19:41.428Z,5.20
2022-09-23T04:22:08.726Z,4.82
2022-09-23T04:24:40.220Z,5.45
2022-09-23T04:27:06.659Z,5.60
2022-09-23T04:29:33.130Z,5.80
2022-09-23T04:31:59.757Z,5.55
2022-09-23T04:36:55.776Z,5.10
2022-09-23T04:39:22.399Z,4.93
2022-09-23T04:41:48.827Z,5.10
2022-09-23T04:44:15.783Z,4.47
2022-09-23T04:46:44.050Z,5.28
2022-09-23T04:49:10.949Z,5.10
2022-09-23T04:51:37.503Z,4.95
2022-09-23T04:54:04.094Z,5.47
2022-09-23T04:56:32.746Z,5.65
2022-09-23T05:09:57.771Z,7.45
2022-09-23T05:17:28.651Z,8.95
2022-09-23T05:20:43.520Z,7.25
2022-09-23T05:24:24.874Z,6.90
2022-09-23T05:33:53.285Z,6.68
2022-09-23T05:36:21.589Z,5.68
2022-09-23T05:38:50.070Z,5.32
2022-09-23T05:41:18.228Z,5.57
2022-09-23T05:43:44.970Z,5.25
2022-09-23T05:48:40.303Z,6.45
2022-09-23T05:51:13.075Z,6.13
2022-09-23T05:53:41.726Z,5.43
2022-09-23T05:56:08.291Z,5.15
2022-09-23T05:58:34.967Z,5.25
2022-09-23T06:01:01.596Z,4.93
2022-09-23T06:03:28.231Z,5.03
2022-09-23T06:08:23.299Z,5.88
2022-09-23T06:10:54.328Z,5.07
2022-09-23T06:13:23.775Z,5.40
2022-09-23T06:15:54.044Z,5.70
2022-09-23T06:18:20.811Z,5.07
2022-09-23T06:23:14.933Z,4.60
2022-09-23T06:28:15.385Z,4.80
2022-09-23T06:30:42.765Z,5.35
2022-09-23T06:33:10.185Z,4.72
2022-09-23T06:35:37.044Z,5.05
2022-09-23T06:38:05.222Z,4.80
2022-09-23T06:40:35.683Z,4.82
2022-09-23T06:43:19.497Z,5.50
2022-09-23T06:45:46.299Z,5.20
2022-09-23T06:50:46.914Z,5.35
2022-09-23T06:53:13.653Z,5.95
2022-09-23T06:58:31.849Z,5.40
2022-09-23T07:01:09.665Z,6.03
2022-09-23T07:03:37.121Z,6.45
2022-09-23T07:06:04.327Z,6.38
2022-09-23T07:08:37.964Z,8.05
2022-09-23T07:11:24.155Z,7.43
2022-09-23T07:13:50.936Z,8.07
2022-09-23T07:27:02.604Z,8.07
2022-09-23T07:37:10.746Z,8.07
2022-09-23T08:20:42.594Z,3.92
2022-09-23T08:23:14.412Z,4.25
2022-09-23T08:25:46.859Z,4.47
2022-09-23T08:28:45.741Z,4.13
2022-09-23T08:33:56.066Z,4.40
2022-09-23T09:15:15.675Z,3.42
2022-09-23T09:33:47.218Z,2.58
2022-09-23T09:49:18.841Z,2.33
2022-09-23T10:09:23.115Z,1.90
2022-09-23T10:15:46.839Z,1.73
2022-09-23T10:23:38.543Z,1.10
2022-09-23T11:52:51.232Z,1.40
2022-09-23T11:56:32.832Z,1.40
2022-09-23T11:59:40.209Z,1.33
2022-09-23T12:03:01.717Z,1.17
2022-09-23T12:06:44.355Z,1.73
2022-09-23T12:11:40.362Z,1.00
2022-09-23T12:17:58.732Z,1.15
2022-09-23T12:28:51.885Z,1.33
2022-09-23T12:31:24.710Z,0.80
2022-09-23T12:41:50.231Z,1.10
2022-09-23T12:45:26.269Z,1.42
2022-09-23T12:51:32.095Z,0.93
2022-09-23T12:54:04.472Z,1.23
2022-09-23T12:56:41.152Z,0.93
2022-09-23T13:00:06.464Z,1.17
2022-09-23T13:41:01.417Z,0.80
2022-09-23T13:43:34.723Z,0.73
2022-09-23T14:19:18.615Z,1.02
2022-09-23T14:21:55.977Z,0.90
2022-09-23T14:38:41.833Z,1.00
2022-09-23T14:41:25.186Z,0.90
2022-09-23T14:43:58.889Z,1.35
2022-09-23T14:46:31.077Z,0.70
2022-09-23T14:49:03.080Z,1.05
2022-09-23T14:51:34.053Z,0.82
2022-09-23T14:54:38.095Z,0.95
2022-09-23T14:57:48.980Z,0.90
2022-09-23T15:00:27.771Z,1.23
2022-09-23T15:03:02.620Z,0.90
2022-09-23T15:05:45.005Z,0.80
2022-09-23T15:08:18.699Z,0.80
2022-09-23T15:10:46.265Z,0.70
2022-09-23T15:13:19.891Z,0.75
2022-09-23T15:15:47.250Z,0.82
2022-09-23T15:18:24.955Z,0.90
2022-09-23T15:20:53.839Z,0.68
2022-09-23T15:23:43.318Z,0.65
2022-09-23T15:26:12.491Z,0.93
2022-09-23T15:28:39.418Z,1.83
2022-09-23T15:31:06.237Z,1.20
2022-09-23T15:36:00.282Z,0.85
2022-09-23T15:38:29.671Z,1.40
2022-09-23T15:40:56.441Z,0.70
2022-09-23T15:45:57.756Z,1.20
2022-09-23T15:48:39.608Z,0.95
2022-09-23T15:51:09.393Z,0.90
2022-09-23T15:53:38.143Z,0.70
2022-09-23T15:56:05.341Z,0.63
2022-09-23T15:58:32.484Z,0.80
2022-09-23T16:00:59.905Z,0.80
2022-09-23T16:03:33.557Z,0.75
2022-09-23T16:06:03.367Z,1.00
2022-09-23T16:08:36.532Z,0.93
2022-09-23T16:11:03.384Z,0.80
2022-09-23T16:16:27.930Z,0.88
2022-09-23T16:18:55.364Z,0.85
2022-09-23T16:25:31.848Z,0.80
2022-09-23T16:27:59.019Z,0.95
2022-09-23T16:30:30.761Z,0.90
2022-09-23T16:33:25.261Z,0.90
2022-09-23T16:35:51.936Z,0.95
2022-09-23T16:38:18.440Z,1.13
2022-09-23T16:40:47.861Z,1.15
2022-09-23T16:43:17.122Z,0.98
2022-09-23T16:45:46.595Z,1.27
2022-09-23T16:48:13.704Z,1.27
2022-09-23T16:50:40.600Z,1.08
2022-09-23T16:53:07.179Z,1.60
2022-09-23T16:55:33.716Z,1.30
2022-09-23T17:00:59.677Z,2.08
2022-09-23T17:03:47.366Z,2.13
2022-09-23T17:06:14.644Z,2.15
2022-09-23T17:08:42.577Z,3.45
2022-09-23T17:11:14.461Z,3.00
2022-09-23T17:13:42.420Z,2.85
2022-09-23T17:16:11.959Z,2.83
2022-09-23T17:18:39.148Z,2.85
2022-09-23T17:21:07.865Z,2.97
2022-09-23T17:23:36.554Z,2.83
2022-09-23T17:30:45.875Z,3.20
2022-09-23T17:33:30.021Z,3.85
2022-09-23T17:36:01.263Z,3.65
2022-09-23T17:38:33.663Z,4.20
2022-09-23T17:47:48.040Z,3.92
2022-09-23T17:50:15.001Z,4.45
2022-09-23T17:52:41.696Z,4.47
2022-09-23T17:55:17.136Z,4.28
2022-09-23T17:58:32.056Z,4.50
2022-09-23T18:00:59.441Z,4.70
2022-09-23T18:03:27.946Z,5.13
2022-09-23T18:06:57.268Z,5.03
2022-09-23T18:20:50.475Z,4.43
2022-09-23T21:00:52.879Z,6.25
2022-09-23T21:10:24.944Z,6.15
2022-09-23T21:13:17.894Z,7.00
2022-09-23T21:15:44.897Z,6.32
2022-09-23T21:19:30.199Z,6.85
2022-09-23T21:21:56.019Z,6.38
2022-09-23T21:34:48.014Z,6.35
2022-09-23T21:38:39.143Z,6.63
2022-09-23T21:51:01.231Z,6.88
2022-09-23T22:01:29.087Z,6.82
2022-09-23T22:04:42.474Z,7.10
2022-09-23T22:10:02.230Z,6.68
2022-09-23T22:12:31.827Z,6.63
2022-09-23T22:15:00.778Z,7.00
2022-09-23T22:17:31.685Z,6.88
2022-09-23T22:20:02.262Z,6.65
2022-09-23T22:22:29.053Z,7.80
2022-09-23T22:27:24.008Z,7.35
2022-09-23T22:30:09.506Z,7.28
2022-09-23T22:32:45.024Z,7.05
2022-09-23T22:35:19.869Z,6.50
2022-09-23T22:37:48.119Z,7.50
2022-09-23T22:40:15.971Z,7.10
2022-09-23T22:42:43.840Z,7.45
2022-09-23T22:45:11.894Z,7.72
2022-09-23T22:47:45.822Z,7.15
2022-09-23T22:50:14.653Z,6.13
2022-09-23T22:52:49.481Z,6.55
2022-09-23T22:55:25.568Z,7.07
2022-09-23T22:58:21.233Z,7.13
2022-09-23T23:00:48.683Z,7.75
2022-09-23T23:03:26.822Z,7.88
2022-09-23T23:06:00.021Z,7.68
2022-09-23T23:08:32.631Z,7.45
2022-09-23T23:11:05.440Z,6.70
2022-09-23T23:13:32.976Z,6.95
2022-09-23T23:16:05.003Z,6.97
2022-09-23T23:18:39.666Z,7.75
2022-09-23T23:21:17.437Z,6.93
2022-09-23T23:23:47.701Z,7.93
2022-09-23T23:26:20.876Z,6.45
2022-09-23T23:28:49.781Z,6.00
2022-09-23T23:31:21.658Z,6.80
2022-09-23T23:33:51.856Z,7.15
2022-09-23T23:36:22.120Z,7.53
2022-09-23T23:38:51.795Z,7.20
2022-09-23T23:48:52.173Z,6.47
2022-09-23T23:52:29.639Z,6.65
2022-09-23T23:55:13.203Z,7.07
